BRL weather

Southeast Iowa Regional Airport
Burlington, Iowa, United States

Public forecast

Using degrees Fahrenheit for public forecast. Weather courtesy of forecast.io.

Current aviation weather report (METAR) for Southeast Iowa Regional Airport

Report is more than 6 hours old.

Retrieved 2020/08/06 23:53 UTC (1 day ago):

KBRL 072353Z AUTO 15008KT 10SM CLR 27/18 A3007 RMK AO2 SLP178 T02670183 10289 20261 55003

Aviation forecast (TAF) for Southeast Iowa Regional Airport

Retrieved 2020-08-08 00:33 UTC (0 seconds ago):

TAF KBRL 072329Z 0800/0824 15008KT P6SM FEW250 FM081500 18009KT P6SM BKN050